createdAt,value
2017-01-18T00:00:55.543Z,1025.47
2017-01-18T00:02:09.368Z,1025.47
2017-01-18T00:03:22.811Z,1025.46
2017-01-18T00:04:36.340Z,1025.49
2017-01-18T00:05:49.864Z,1025.4
2017-01-18T00:07:04.871Z,1025.47
2017-01-18T00:08:18.360Z,1025.43
2017-01-18T00:09:31.882Z,1025.42
2017-01-18T00:10:45.313Z,1025.46
2017-01-18T00:11:59.155Z,1025.45
2017-01-18T00:13:14.697Z,1025.5
2017-01-18T00:14:28.447Z,1025.53
2017-01-18T00:15:42.670Z,1025.52
2017-01-18T00:16:56.959Z,1025.44
2017-01-18T00:18:11.896Z,1025.57
2017-01-18T00:19:26.701Z,1025.53
2017-01-18T00:20:40.824Z,1025.53
2017-01-18T00:21:54.279Z,1025.74
2017-01-18T00:23:09.944Z,1025.69
2017-01-18T00:24:24.179Z,1025.62
2017-01-18T00:25:38.685Z,1025.78
2017-01-18T00:26:53.021Z,1025.71
2017-01-18T00:28:06.870Z,1025.73
2017-01-18T00:29:21.147Z,1025.71
2017-01-18T00:30:34.716Z,1025.83
2017-01-18T00:31:48.801Z,1025.84
2017-01-18T00:33:03.640Z,1025.81
2017-01-18T00:34:17.380Z,1025.84
2017-01-18T00:35:31.274Z,1025.8
2017-01-18T00:36:45.181Z,1025.82
2017-01-18T00:38:00.145Z,1025.78
2017-01-18T00:39:13.628Z,1025.74
2017-01-18T00:40:27.142Z,1025.78
2017-01-18T00:41:40.839Z,1025.8
2017-01-18T00:42:54.271Z,1025.88
2017-01-18T00:44:09.313Z,1025.85
2017-01-18T00:45:23.225Z,1025.81
2017-01-18T00:46:36.652Z,1025.98
2017-01-18T00:47:50.105Z,1025.95
2017-01-18T00:49:03.804Z,1025.95
2017-01-18T00:50:17.917Z,1025.93
2017-01-18T00:51:32.017Z,1025.96
2017-01-18T00:52:45.480Z,1025.95
2017-01-18T00:53:59.292Z,1025.94
2017-01-18T00:55:13.148Z,1025.88
2017-01-18T00:56:26.886Z,1025.76
2017-01-18T00:57:40.308Z,1025.78
2017-01-18T00:58:53.728Z,1025.78
2017-01-18T01:00:07.188Z,1025.74
2017-01-18T01:01:20.743Z,1025.79
2017-01-18T01:02:34.567Z,1025.84
2017-01-18T01:03:48.000Z,1025.82
2017-01-18T01:05:01.469Z,1025.87
2017-01-18T01:06:14.973Z,1025.87
2017-01-18T01:07:28.393Z,1025.87
2017-01-18T01:08:42.293Z,1025.77
2017-01-18T01:09:57.300Z,1025.8
2017-01-18T01:11:12.402Z,1025.84
2017-01-18T01:12:26.050Z,1025.96
2017-01-18T01:13:39.494Z,1025.89
2017-01-18T01:14:53.703Z,1025.91
2017-01-18T01:16:07.178Z,1025.85
2017-01-18T01:17:21.038Z,1025.87
2017-01-18T01:18:34.894Z,1025.81
2017-01-18T01:19:48.367Z,1025.82
2017-01-18T01:21:02.745Z,1025.73
2017-01-18T01:22:16.207Z,1025.73
2017-01-18T01:23:29.830Z,1025.72
2017-01-18T01:24:43.723Z,1025.7
2017-01-18T01:25:57.193Z,1025.71
2017-01-18T01:27:11.032Z,1025.86
2017-01-18T01:28:24.858Z,1025.78
2017-01-18T01:29:38.257Z,1025.74
2017-01-18T01:30:51.800Z,1025.69
2017-01-18T01:32:05.298Z,1025.69
2017-01-18T01:33:19.014Z,1025.86
2017-01-18T01:34:33.982Z,1025.72
2017-01-18T01:35:47.829Z,1025.73
2017-01-18T01:37:03.160Z,1025.74
2017-01-18T01:38:16.797Z,1025.67
2017-01-18T01:39:32.710Z,1025.67
2017-01-18T01:40:46.151Z,1025.7
2017-01-18T01:41:59.941Z,1025.68
2017-01-18T01:43:13.817Z,1025.86
2017-01-18T01:44:27.266Z,1025.69
2017-01-18T01:45:41.835Z,1025.98
2017-01-18T01:46:55.620Z,1025.66
2017-01-18T01:48:10.241Z,1025.65
2017-01-18T01:49:23.696Z,1025.68
2017-01-18T01:50:37.159Z,1025.72
2017-01-18T01:51:50.915Z,1025.82
2017-01-18T01:53:04.849Z,1025.86
2017-01-18T01:54:18.556Z,1025.82
2017-01-18T01:55:32.003Z,1025.77
2017-01-18T01:56:45.468Z,1025.79
2017-01-18T01:57:59.680Z,1025.71
2017-01-18T01:59:13.110Z,1025.76
2017-01-18T02:00:27.032Z,1025.73
2017-01-18T02:01:40.472Z,1025.82
2017-01-18T02:02:54.357Z,1025.89
2017-01-18T02:04:08.174Z,1025.81
2017-01-18T02:05:21.618Z,1025.88
2017-01-18T02:06:35.089Z,1025.85
2017-01-18T02:07:48.529Z,1025.96
2017-01-18T02:09:02.229Z,1025.78
2017-01-18T02:10:15.829Z,1025.75
2017-01-18T02:11:30.013Z,1025.88
2017-01-18T02:12:43.430Z,1025.74
2017-01-18T02:15:27.049Z,1025.74
2017-01-18T02:16:40.707Z,1025.71
2017-01-18T02:17:54.162Z,1025.69
2017-01-18T02:19:07.737Z,1025.75
2017-01-18T02:20:21.921Z,1025.59
2017-01-18T02:21:35.657Z,1025.68
2017-01-18T02:22:49.079Z,1025.8
2017-01-18T02:24:02.632Z,1025.77
2017-01-18T02:25:16.133Z,1025.86
2017-01-18T02:26:29.735Z,1025.72
2017-01-18T02:27:44.191Z,1025.65
2017-01-18T02:28:57.654Z,1025.55
2017-01-18T02:30:11.367Z,1025.55
2017-01-18T02:31:25.446Z,1025.55
2017-01-18T02:32:39.456Z,1025.58
2017-01-18T02:33:53.584Z,1025.58
2017-01-18T02:35:07.088Z,1025.52
2017-01-18T02:36:22.214Z,1025.57
2017-01-18T02:37:35.647Z,1025.56
2017-01-18T02:38:49.105Z,1025.61
2017-01-18T02:40:02.847Z,1025.54
2017-01-18T02:41:17.527Z,1025.63
2017-01-18T02:42:30.948Z,1025.63
2017-01-18T02:43:44.333Z,1025.59
2017-01-18T02:44:58.171Z,1025.52
2017-01-18T02:46:11.915Z,1025.51
2017-01-18T02:47:26.678Z,1025.54
2017-01-18T02:48:40.099Z,1025.52
2017-01-18T02:49:53.536Z,1025.52
2017-01-18T02:51:06.976Z,1025.44
2017-01-18T02:52:20.834Z,1025.41
2017-01-18T02:53:34.302Z,1025.45
2017-01-18T02:54:47.738Z,1025.51
2017-01-18T02:56:03.306Z,1025.51
2017-01-18T02:57:17.967Z,1025.56
2017-01-18T02:58:32.584Z,1025.55
2017-01-18T02:59:46.021Z,1025.49
2017-01-18T03:00:59.497Z,1025.46
2017-01-18T03:02:12.938Z,1025.61
2017-01-18T03:03:27.604Z,1025.67
2017-01-18T03:04:41.546Z,1025.63
2017-01-18T03:05:55.295Z,1025.59
2017-01-18T03:07:11.472Z,1025.57
2017-01-18T03:08:24.927Z,1025.58
2017-01-18T03:09:44.537Z,1025.58
2017-01-18T03:11:03.999Z,1025.65
2017-01-18T03:12:17.425Z,1025.66
2017-01-18T03:13:30.942Z,1025.55
2017-01-18T03:14:47.846Z,1025.6
2017-01-18T03:16:07.583Z,1025.59
2017-01-18T03:17:29.346Z,1025.6
2017-01-18T03:18:46.124Z,1025.59
2017-01-18T03:20:03.418Z,1025.62
2017-01-18T03:21:22.549Z,1025.61
2017-01-18T03:22:36.338Z,1025.66
2017-01-18T03:23:49.824Z,1025.61
2017-01-18T03:25:03.242Z,1025.71
2017-01-18T03:28:28.121Z,1025.55
2017-01-18T03:29:41.545Z,1025.49
2017-01-18T03:30:54.973Z,1025.55
2017-01-18T03:32:08.413Z,1025.63
2017-01-18T03:33:21.868Z,1025.6
2017-01-18T03:34:35.635Z,1025.62
2017-01-18T03:35:49.089Z,1025.61
2017-01-18T03:37:02.833Z,1025.65
2017-01-18T03:38:16.293Z,1025.58
2017-01-18T03:39:29.786Z,1025.61
2017-01-18T03:40:43.482Z,1025.62
2017-01-18T03:41:56.917Z,1025.61
2017-01-18T03:43:10.325Z,1025.64
2017-01-18T03:44:23.809Z,1025.58
2017-01-18T03:45:37.330Z,1025.57
2017-01-18T03:46:51.097Z,1025.57
2017-01-18T03:48:04.496Z,1025.53
2017-01-18T03:49:17.937Z,1025.73
2017-01-18T03:50:31.409Z,1025.7
2017-01-18T03:51:44.803Z,1025.61
2017-01-18T03:52:58.485Z,1025.7
2017-01-18T03:54:11.938Z,1025.68
2017-01-18T03:55:26.769Z,1025.65
2017-01-18T03:56:40.176Z,1025.61
2017-01-18T03:57:54.020Z,1025.55
2017-01-18T03:59:07.703Z,1025.5
2017-01-18T04:00:21.223Z,1025.6
2017-01-18T04:01:34.640Z,1025.56
2017-01-18T04:02:48.065Z,1025.55
2017-01-18T04:04:01.461Z,1025.59
2017-01-18T04:05:15.190Z,1025.48
2017-01-18T04:06:28.709Z,1025.49
2017-01-18T04:07:42.984Z,1025.44
2017-01-18T04:08:56.421Z,1025.48
2017-01-18T04:10:09.832Z,1025.52
2017-01-18T04:11:23.601Z,1025.52
2017-01-18T04:12:37.073Z,1025.53
2017-01-18T04:13:52.915Z,1025.53
2017-01-18T04:15:06.302Z,1025.56
2017-01-18T04:16:20.201Z,1025.6
2017-01-18T04:17:33.973Z,1025.68
2017-01-18T04:18:47.415Z,1025.62
2017-01-18T04:20:00.891Z,1025.61
2017-01-18T04:21:14.320Z,1025.61
2017-01-18T04:22:27.914Z,1025.52
2017-01-18T04:23:41.645Z,1025.6
2017-01-18T04:24:55.084Z,1025.54
2017-01-18T04:26:08.966Z,1025.57
2017-01-18T04:27:23.707Z,1025.54
2017-01-18T04:28:37.099Z,1025.43
2017-01-18T04:29:50.818Z,1025.55
2017-01-18T04:31:04.293Z,1025.42
2017-01-18T04:32:17.932Z,1025.43
2017-01-18T04:33:31.509Z,1025.47
2017-01-18T04:34:44.932Z,1025.48
2017-01-18T04:35:58.630Z,1025.44
2017-01-18T04:37:12.061Z,1025.43
2017-01-18T04:38:25.543Z,1025.43
2017-01-18T04:39:39.084Z,1025.48
2017-01-18T04:40:52.490Z,1025.37
2017-01-18T04:42:06.204Z,1025.32
2017-01-18T04:43:19.751Z,1025.39
2017-01-18T04:44:33.218Z,1025.35
2017-01-18T04:45:47.083Z,1025.43
2017-01-18T04:47:00.682Z,1025.38
2017-01-18T04:48:14.459Z,1025.43
2017-01-18T04:49:27.971Z,1025.45
2017-01-18T04:50:41.527Z,1025.61
2017-01-18T04:51:54.940Z,1025.51
2017-01-18T04:53:08.378Z,1025.41
2017-01-18T04:54:22.360Z,1025.61
2017-01-18T04:55:35.836Z,1025.44
2017-01-18T04:56:49.227Z,1025.38
2017-01-18T04:58:02.718Z,1025.62
2017-01-18T04:59:16.313Z,1025.44
2017-01-18T05:00:30.091Z,1025.47
2017-01-18T05:02:02.761Z,1025.39
2017-01-18T05:03:16.287Z,1025.39
2017-01-18T05:04:29.764Z,1025.38
2017-01-18T05:05:43.933Z,1025.35
2017-01-18T05:06:57.383Z,1025.32
2017-01-18T05:08:10.838Z,1025.38
2017-01-18T05:09:24.300Z,1025.36
2017-01-18T05:10:37.725Z,1025.35
2017-01-18T05:11:51.825Z,1025.4
2017-01-18T05:13:05.266Z,1025.39
2017-01-18T05:14:18.774Z,1025.46
2017-01-18T05:15:32.248Z,1025.41
2017-01-18T05:16:45.739Z,1025.45
2017-01-18T05:17:59.487Z,1025.41
2017-01-18T05:19:13.003Z,1025.45
2017-01-18T05:20:26.820Z,1025.51
2017-01-18T05:21:40.741Z,1025.41
2017-01-18T05:22:54.202Z,1025.47
2017-01-18T05:24:08.873Z,1025.39
2017-01-18T05:25:24.058Z,1025.39
2017-01-18T05:26:38.040Z,1025.38
2017-01-18T05:27:51.516Z,1025.48
2017-01-18T05:29:05.044Z,1025.37
2017-01-18T05:30:21.065Z,1025.39
2017-01-18T05:31:34.661Z,1025.36
2017-01-18T05:32:48.219Z,1025.4
2017-01-18T05:34:01.753Z,1025.28
2017-01-18T05:35:15.921Z,1025.37
2017-01-18T05:36:30.128Z,1025.28
2017-01-18T05:37:43.868Z,1025.36
2017-01-18T05:38:57.318Z,1025.32
2017-01-18T05:40:10.809Z,1025.31
2017-01-18T05:41:24.340Z,1025.55
2017-01-18T05:42:38.528Z,1025.42
2017-01-18T05:43:53.262Z,1025.47
2017-01-18T05:45:06.819Z,1025.44
2017-01-18T05:46:20.334Z,1025.46
2017-01-18T05:47:33.832Z,1025.48
2017-01-18T05:48:48.066Z,1025.44
2017-01-18T05:50:01.624Z,1025.37
2017-01-18T05:51:15.573Z,1025.54
2017-01-18T05:52:29.480Z,1025.55
2017-01-18T05:53:42.948Z,1025.6
2017-01-18T05:54:56.756Z,1025.71
2017-01-18T05:56:10.360Z,1025.63
2017-01-18T05:57:25.093Z,1025.71
2017-01-18T05:58:39.023Z,1025.72
2017-01-18T05:59:52.488Z,1025.61
2017-01-18T06:01:06.240Z,1025.63
2017-01-18T06:02:19.721Z,1025.64
2017-01-18T06:03:33.213Z,1025.62
2017-01-18T06:04:46.663Z,1025.71
2017-01-18T06:06:00.106Z,1025.67
2017-01-18T06:07:13.954Z,1025.64
2017-01-18T06:08:28.401Z,1025.74
2017-01-18T06:09:42.290Z,1025.73
2017-01-18T06:10:55.744Z,1025.66
2017-01-18T06:12:09.203Z,1025.8
2017-01-18T06:13:23.065Z,1025.63
2017-01-18T06:14:36.921Z,1025.69
2017-01-18T06:15:50.447Z,1025.64
2017-01-18T06:17:03.909Z,1025.71
2017-01-18T06:18:17.826Z,1025.84
2017-01-18T06:19:32.028Z,1025.75
2017-01-18T06:20:45.648Z,1025.78
2017-01-18T06:21:59.097Z,1025.85
2017-01-18T06:23:12.652Z,1025.74
2017-01-18T06:24:26.346Z,1025.83
2017-01-18T06:25:40.080Z,1025.77
2017-01-18T06:26:53.499Z,1025.8
2017-01-18T06:28:06.963Z,1025.79
2017-01-18T06:29:20.743Z,1025.81
2017-01-18T06:30:34.653Z,1025.94
2017-01-18T06:31:48.442Z,1025.8
2017-01-18T06:33:02.077Z,1025.78
2017-01-18T06:34:17.117Z,1025.83
2017-01-18T06:35:30.640Z,1025.91
2017-01-18T06:36:44.562Z,1025.96
2017-01-18T06:37:58.313Z,1026.02
2017-01-18T06:39:11.813Z,1025.98
2017-01-18T06:40:25.335Z,1026.05
2017-01-18T06:41:38.803Z,1026.08
2017-01-18T06:42:52.349Z,1026.05
2017-01-18T06:44:06.187Z,1025.94
2017-01-18T06:45:19.784Z,1026.08
2017-01-18T06:46:35.452Z,1026.06
2017-01-18T06:47:49.340Z,1026
2017-01-18T06:49:03.234Z,1025.99
2017-01-18T06:52:38.022Z,1026.08
2017-01-18T06:53:51.636Z,1026.04
2017-01-18T06:55:05.369Z,1026.11
2017-01-18T06:56:19.094Z,1026.2
2017-01-18T06:57:32.610Z,1026.04
2017-01-18T06:58:46.081Z,1026.05
2017-01-18T06:59:59.562Z,1026.06
2017-01-18T07:01:13.119Z,1026.07
2017-01-18T07:02:27.173Z,1026.07
2017-01-18T07:03:41.051Z,1026.19
2017-01-18T07:04:54.485Z,1026.2
2017-01-18T07:06:09.197Z,1026.1
2017-01-18T07:07:22.633Z,1026.11
2017-01-18T07:08:36.417Z,1026.24
2017-01-18T07:09:49.837Z,1026.25
2017-01-18T07:11:03.423Z,1026.33
2017-01-18T07:12:16.957Z,1026.23
2017-01-18T07:13:30.385Z,1026.27
2017-01-18T07:14:44.514Z,1026.28
2017-01-18T07:15:58.472Z,1026.38
2017-01-18T07:17:12.021Z,1026.34
2017-01-18T07:18:25.434Z,1026.35
2017-01-18T07:19:38.874Z,1026.5
2017-01-18T07:20:52.548Z,1026.6
2017-01-18T07:22:06.083Z,1026.44
2017-01-18T07:23:19.678Z,1026.45
2017-01-18T07:24:33.129Z,1026.5
2017-01-18T07:25:46.556Z,1026.37
2017-01-18T07:27:00.413Z,1026.31
2017-01-18T07:28:14.683Z,1026.41
2017-01-18T07:29:28.110Z,1026.37
2017-01-18T07:30:41.622Z,1026.41
2017-01-18T07:31:55.026Z,1026.36
2017-01-18T07:33:08.834Z,1026.5
2017-01-18T07:34:22.261Z,1026.36
2017-01-18T07:35:35.738Z,1026.4
2017-01-18T07:36:49.608Z,1026.4
2017-01-18T07:38:04.348Z,1026.38
2017-01-18T07:39:18.027Z,1026.31
2017-01-18T07:40:31.441Z,1026.31
2017-01-18T07:41:44.893Z,1026.43
2017-01-18T07:42:59.259Z,1026.37
2017-01-18T07:44:12.709Z,1026.43
2017-01-18T07:45:26.454Z,1026.44
2017-01-18T07:46:39.911Z,1026.44
2017-01-18T07:47:53.375Z,1026.43
2017-01-18T07:49:09.079Z,1026.45
2017-01-18T07:50:22.524Z,1026.4
2017-01-18T07:51:36.248Z,1026.49
2017-01-18T07:52:49.721Z,1026.35
2017-01-18T07:54:03.418Z,1026.33
2017-01-18T07:55:16.856Z,1026.27
2017-01-18T07:56:30.334Z,1026.48
2017-01-18T07:57:44.033Z,1026.42
2017-01-18T07:58:58.006Z,1026.52
2017-01-18T08:00:11.450Z,1026.35
2017-01-18T08:01:24.955Z,1026.41
2017-01-18T08:02:38.504Z,1026.42
2017-01-18T08:03:54.433Z,1026.32
2017-01-18T08:05:07.969Z,1026.35
2017-01-18T08:06:21.431Z,1026.44
2017-01-18T08:07:35.300Z,1026.4
2017-01-18T08:08:48.916Z,1026.46
2017-01-18T08:10:02.687Z,1026.55
2017-01-18T08:11:16.114Z,1026.46
2017-01-18T08:12:29.748Z,1026.57
2017-01-18T08:13:43.168Z,1026.49
2017-01-18T08:14:56.742Z,1026.51
2017-01-18T08:16:10.458Z,1026.58
2017-01-18T08:17:23.915Z,1026.61
2017-01-18T08:18:37.381Z,1026.64
2017-01-18T08:19:50.835Z,1026.49
2017-01-18T08:21:04.408Z,1026.51
2017-01-18T08:22:18.329Z,1026.49
2017-01-18T08:23:31.907Z,1026.6
2017-01-18T08:24:45.548Z,1026.47
2017-01-18T08:25:59.068Z,1026.64
2017-01-18T08:27:12.513Z,1026.51
2017-01-18T08:28:26.221Z,1026.52
2017-01-18T08:29:40.090Z,1026.49
2017-01-18T08:30:53.561Z,1026.57
2017-01-18T08:32:07.446Z,1026.64
2017-01-18T08:33:20.906Z,1026.44
2017-01-18T08:34:34.628Z,1026.45
2017-01-18T08:35:48.155Z,1026.51
2017-01-18T08:37:02.566Z,1026.51
2017-01-18T08:38:16.033Z,1026.46
2017-01-18T08:39:29.772Z,1026.46
2017-01-18T08:40:43.550Z,1026.44
2017-01-18T08:41:57.096Z,1026.43
2017-01-18T08:43:10.553Z,1026.56
2017-01-18T08:44:23.984Z,1026.5
2017-01-18T08:45:37.405Z,1026.49
2017-01-18T08:46:51.260Z,1026.44
2017-01-18T08:48:04.722Z,1026.62
2017-01-18T08:49:18.215Z,1026.51
2017-01-18T08:50:31.657Z,1026.51
2017-01-18T08:51:45.133Z,1026.54
2017-01-18T08:52:59.904Z,1026.6
2017-01-18T08:54:20.319Z,1026.64
2017-01-18T08:55:34.609Z,1026.55
2017-01-18T08:56:48.127Z,1026.61
2017-01-18T08:58:02.931Z,1026.62
2017-01-18T08:59:17.102Z,1026.54
2017-01-18T09:00:30.575Z,1026.59
2017-01-18T09:02:04.053Z,1026.57
2017-01-18T09:03:18.424Z,1026.62
2017-01-18T09:04:32.246Z,1026.51
2017-01-18T09:05:45.739Z,1026.48
2017-01-18T09:06:59.220Z,1026.54
2017-01-18T09:08:12.770Z,1026.55
2017-01-18T09:09:26.274Z,1026.51
2017-01-18T09:10:40.070Z,1026.56
2017-01-18T09:11:53.516Z,1026.54
2017-01-18T09:13:07.008Z,1026.53
2017-01-18T09:14:20.426Z,1026.49
2017-01-18T09:15:33.946Z,1026.62
2017-01-18T09:16:48.236Z,1026.51
2017-01-18T09:18:01.680Z,1026.51
2017-01-18T09:19:15.639Z,1026.59
2017-01-18T09:20:31.698Z,1026.58
2017-01-18T09:21:45.123Z,1026.51
2017-01-18T09:22:58.887Z,1026.59
2017-01-18T09:24:12.388Z,1026.54
2017-01-18T09:25:25.819Z,1026.66
2017-01-18T09:26:39.684Z,1026.57
2017-01-18T09:27:53.171Z,1026.57
2017-01-18T09:29:07.389Z,1026.57
2017-01-18T09:30:20.942Z,1026.5
2017-01-18T09:31:34.389Z,1026.48
2017-01-18T09:32:47.795Z,1026.53
2017-01-18T09:34:01.194Z,1026.49
2017-01-18T09:35:15.063Z,1026.57
2017-01-18T09:36:28.477Z,1026.49
2017-01-18T09:37:41.919Z,1026.46
2017-01-18T09:38:55.341Z,1026.5
2017-01-18T09:40:08.872Z,1026.57
2017-01-18T09:41:22.581Z,1026.53
2017-01-18T09:42:36.025Z,1026.54
2017-01-18T09:43:50.084Z,1026.54
2017-01-18T09:45:03.560Z,1026.53
2017-01-18T09:46:17.031Z,1026.48
2017-01-18T09:47:30.773Z,1026.57
2017-01-18T09:48:44.192Z,1026.54
2017-01-18T09:49:57.663Z,1026.56
2017-01-18T09:51:11.209Z,1026.56
2017-01-18T09:52:24.630Z,1026.52
2017-01-18T09:53:38.340Z,1026.51
2017-01-18T09:54:51.784Z,1026.63
2017-01-18T09:56:05.314Z,1026.55
2017-01-18T09:57:18.807Z,1026.55
2017-01-18T09:58:32.264Z,1026.54
2017-01-18T09:59:46.516Z,1026.51
2017-01-18T10:01:00.044Z,1026.43
2017-01-18T10:02:13.506Z,1026.46
2017-01-18T10:03:27.567Z,1026.48
2017-01-18T10:04:41.038Z,1026.5
2017-01-18T10:05:54.781Z,1026.47
2017-01-18T10:07:08.363Z,1026.52
2017-01-18T10:08:21.877Z,1026.45
2017-01-18T10:09:35.822Z,1026.51
2017-01-18T10:10:49.318Z,1026.46
2017-01-18T10:12:03.163Z,1026.4
2017-01-18T10:13:16.646Z,1026.43
2017-01-18T10:14:30.619Z,1026.45
2017-01-18T10:15:44.102Z,1026.48
2017-01-18T10:16:58.911Z,1026.59
2017-01-18T10:18:12.595Z,1026.41
2017-01-18T10:19:26.040Z,1026.46
2017-01-18T10:20:39.464Z,1026.49
2017-01-18T10:21:52.871Z,1026.45
2017-01-18T10:23:06.614Z,1026.45
2017-01-18T10:24:20.328Z,1026.48
2017-01-18T10:25:33.762Z,1026.43
2017-01-18T10:26:47.188Z,1026.56
2017-01-18T10:28:00.703Z,1026.56
2017-01-18T10:29:14.238Z,1026.55
2017-01-18T10:30:27.950Z,1026.55
2017-01-18T10:31:41.367Z,1026.41
2017-01-18T10:32:54.892Z,1026.48
2017-01-18T10:34:08.332Z,1026.43
2017-01-18T10:35:21.784Z,1026.45
2017-01-18T10:36:37.751Z,1026.48
2017-01-18T10:37:52.021Z,1026.36
2017-01-18T10:39:05.585Z,1026.39
2017-01-18T10:40:19.024Z,1026.32
2017-01-18T10:41:32.453Z,1026.29
2017-01-18T10:42:46.170Z,1026.27
2017-01-18T10:43:59.637Z,1026.25
2017-01-18T10:45:13.096Z,1026.32
2017-01-18T10:46:26.557Z,1026.31
2017-01-18T10:47:39.994Z,1026.35
2017-01-18T10:48:53.847Z,1026.32
2017-01-18T10:50:07.326Z,1026.28
2017-01-18T10:51:46.469Z,1026.32
2017-01-18T10:53:00.369Z,1026.28
2017-01-18T10:54:14.190Z,1026.21
2017-01-18T10:55:27.683Z,1026.24
2017-01-18T10:56:41.166Z,1026.23
2017-01-18T10:57:54.607Z,1026.34
2017-01-18T10:59:08.572Z,1026.21
2017-01-18T11:00:22.329Z,1026.26
2017-01-18T11:01:35.806Z,1026.32
2017-01-18T11:02:49.238Z,1026.27
2017-01-18T11:04:02.687Z,1026.25
2017-01-18T11:05:16.209Z,1026.41
2017-01-18T11:06:30.339Z,1026.26
2017-01-18T11:07:43.811Z,1026.26
2017-01-18T11:08:57.305Z,1026.2
2017-01-18T11:10:11.345Z,1026.19
2017-01-18T11:11:24.824Z,1026.21
2017-01-18T11:12:38.693Z,1026.11
2017-01-18T11:13:52.580Z,1026.16
2017-01-18T11:15:06.467Z,1026.18
2017-01-18T11:16:20.037Z,1026.15
2017-01-18T11:17:33.675Z,1026.19
2017-01-18T11:18:47.877Z,1026.26
2017-01-18T11:20:01.407Z,1026.03
2017-01-18T11:21:16.189Z,1026.05
2017-01-18T11:22:29.730Z,1026.09
2017-01-18T11:23:43.218Z,1026.1
2017-01-18T11:24:57.095Z,1026.06
2017-01-18T11:26:10.777Z,1026.07
2017-01-18T11:27:24.231Z,1025.97
2017-01-18T11:28:37.737Z,1025.89
2017-01-18T11:29:51.185Z,1026.1
2017-01-18T11:31:04.934Z,1025.86
2017-01-18T11:32:18.569Z,1025.99
2017-01-18T11:33:32.463Z,1025.91
2017-01-18T11:34:46.369Z,1025.88
2017-01-18T11:35:59.873Z,1025.91
2017-01-18T11:37:15.030Z,1025.88
2017-01-18T11:38:28.511Z,1025.96
2017-01-18T11:39:42.010Z,1026.1
2017-01-18T11:40:55.881Z,1025.89
2017-01-18T11:42:10.618Z,1025.85
2017-01-18T11:45:48.577Z,1025.74
2017-01-18T11:47:02.440Z,1025.78
2017-01-18T11:48:15.961Z,1025.75
2017-01-18T11:49:30.135Z,1025.74
2017-01-18T11:50:43.604Z,1025.74
2017-01-18T11:51:57.055Z,1026.12
2017-01-18T11:53:11.010Z,1025.86
2017-01-18T11:54:26.667Z,1025.74
2017-01-18T11:55:41.269Z,1025.79
2017-01-18T11:56:54.732Z,1025.73
2017-01-18T11:58:08.326Z,1025.71
2017-01-18T11:59:21.780Z,1025.67
2017-01-18T12:00:35.231Z,1025.65
2017-01-18T12:01:48.948Z,1025.6
2017-01-18T12:03:02.431Z,1025.54
2017-01-18T12:04:17.278Z,1025.79
2017-01-18T12:07:36.131Z,1025.58
2017-01-18T12:08:51.348Z,1025.6
2017-01-18T12:10:05.257Z,1025.54
2017-01-18T12:11:18.734Z,1025.55
2017-01-18T12:12:32.253Z,1025.44
2017-01-18T12:15:46.374Z,1025.38
2017-01-18T12:16:59.830Z,1025.35
2017-01-18T12:18:15.136Z,1025.36
2017-01-18T12:19:28.891Z,1025.42
2017-01-18T12:20:42.478Z,1025.38
2017-01-18T12:21:55.934Z,1025.34
2017-01-18T12:23:09.401Z,1025.46
2017-01-18T12:24:22.859Z,1025.31
2017-01-18T12:25:36.733Z,1025.24
2017-01-18T12:26:50.610Z,1025.3
2017-01-18T12:28:14.353Z,1025.48
2017-01-18T12:29:27.906Z,1025.36
2017-01-18T12:30:41.464Z,1025.28
2017-01-18T12:31:55.252Z,1025.22
2017-01-18T12:33:08.742Z,1025.42
2017-01-18T12:34:22.176Z,1025.28
2017-01-18T12:35:35.726Z,1025.12
2017-01-18T12:36:49.314Z,1025.14
2017-01-18T12:38:03.058Z,1025.2
2017-01-18T12:39:16.495Z,1025.11
2017-01-18T12:40:30.375Z,1025.08
2017-01-18T12:41:45.111Z,1025.2
2017-01-18T12:42:58.625Z,1025.17
2017-01-18T12:44:12.100Z,1025.13
2017-01-18T12:45:25.555Z,1025.15
2017-01-18T12:46:39.141Z,1025.15
2017-01-18T12:47:52.650Z,1025.24
2017-01-18T12:49:06.108Z,1025.16
2017-01-18T12:50:19.907Z,1025.16
2017-01-18T12:51:33.377Z,1025.16
2017-01-18T12:52:46.989Z,1025.33
2017-01-18T12:54:00.992Z,1025.12
2017-01-18T12:55:14.450Z,1025.19
2017-01-18T12:56:28.209Z,1025.3
2017-01-18T12:57:41.786Z,1025.28
2017-01-18T12:58:55.215Z,1025.18
2017-01-18T13:00:08.672Z,1025.39
2017-01-18T13:01:22.162Z,1025.03
2017-01-18T13:02:35.951Z,1025.19
2017-01-18T13:03:49.437Z,1025.11
2017-01-18T13:05:02.951Z,1025.01
2017-01-18T13:06:16.429Z,1025.11
2017-01-18T13:07:29.922Z,1025.05
2017-01-18T13:08:43.780Z,1025.25
2017-01-18T13:09:57.246Z,1025.1
2017-01-18T13:11:10.715Z,1025.05
2017-01-18T13:12:26.326Z,1025.07
2017-01-18T13:13:40.427Z,1025.09
2017-01-18T13:14:54.229Z,1025.04
2017-01-18T13:16:07.724Z,1025.17
2017-01-18T13:17:21.205Z,1025.09
2017-01-18T13:18:34.821Z,1024.99
2017-01-18T13:19:48.304Z,1024.95
2017-01-18T13:21:02.069Z,1025.01
2017-01-18T13:22:15.529Z,1025.01
2017-01-18T13:23:28.959Z,1025.04
2017-01-18T13:24:42.550Z,1025.03
2017-01-18T13:25:56.029Z,1024.94
2017-01-18T13:27:09.785Z,1025.15
2017-01-18T13:28:23.321Z,1025.01
2017-01-18T13:29:36.831Z,1024.9
2017-01-18T13:30:50.443Z,1024.95
2017-01-18T13:32:04.367Z,1024.93
2017-01-18T13:33:17.972Z,1024.99
2017-01-18T13:34:33.421Z,1024.93
2017-01-18T13:35:46.922Z,1025.06
2017-01-18T13:37:00.450Z,1025.05
2017-01-18T13:38:13.930Z,1024.95
2017-01-18T13:39:27.806Z,1024.94
2017-01-18T13:40:41.364Z,1025
2017-01-18T13:41:54.801Z,1024.94
2017-01-18T13:43:08.226Z,1024.95
2017-01-18T13:44:21.688Z,1024.93
2017-01-18T13:45:36.898Z,1024.94
2017-01-18T13:46:50.368Z,1024.98
2017-01-18T13:48:03.823Z,1024.95
2017-01-18T13:49:17.309Z,1024.98
2017-01-18T13:50:30.851Z,1024.92
2017-01-18T13:51:44.621Z,1025.16
2017-01-18T13:52:58.165Z,1025.15
2017-01-18T13:54:12.059Z,1025.02
2017-01-18T13:55:25.575Z,1025.12
2017-01-18T13:56:39.078Z,1025.03
2017-01-18T13:57:53.255Z,1025.07
2017-01-18T13:59:06.689Z,1025.18
2017-01-18T14:00:20.098Z,1024.98
2017-01-18T14:01:33.606Z,1024.93
2017-01-18T14:02:47.030Z,1024.97
2017-01-18T14:04:00.952Z,1025.11
2017-01-18T14:05:14.416Z,1024.94
2017-01-18T14:06:28.327Z,1024.91
2017-01-18T14:07:41.855Z,1024.99
2017-01-18T14:08:55.271Z,1025.18
2017-01-18T14:10:09.016Z,1025.03
2017-01-18T14:11:22.488Z,1025.09
2017-01-18T14:12:47.122Z,1025.04
2017-01-18T14:14:00.629Z,1025.05
2017-01-18T14:15:14.138Z,1025.03
2017-01-18T14:16:28.085Z,1025.05
2017-01-18T14:17:41.552Z,1025.06
2017-01-18T14:18:54.985Z,1025.16
2017-01-18T14:20:08.415Z,1025.03
2017-01-18T14:21:21.859Z,1025.09
2017-01-18T14:22:35.616Z,1025.19
2017-01-18T14:23:49.291Z,1025.2
2017-01-18T14:25:02.746Z,1025.19
2017-01-18T14:26:16.612Z,1025.1
2017-01-18T14:27:30.080Z,1025.03
2017-01-18T14:28:46.066Z,1025.09
2017-01-18T14:29:59.528Z,1025.01
2017-01-18T14:31:13.004Z,1025.1
2017-01-18T14:32:26.483Z,1025.15
2017-01-18T14:33:40.011Z,1025.15
2017-01-18T14:34:53.779Z,1025.12
2017-01-18T14:36:07.714Z,1025.17
2017-01-18T14:37:21.588Z,1025.15
2017-01-18T14:38:35.490Z,1025.12
2017-01-18T14:39:49.036Z,1025.25
2017-01-18T14:41:02.768Z,1025.12
2017-01-18T14:42:16.231Z,1025.19
2017-01-18T14:43:29.881Z,1025.15
2017-01-18T14:44:45.012Z,1025.31
2017-01-18T14:45:58.877Z,1025.32
2017-01-18T14:47:13.070Z,1025.34
2017-01-18T14:48:26.538Z,1025.26
2017-01-18T14:49:41.235Z,1025.32
2017-01-18T14:50:54.724Z,1025.25
2017-01-18T14:52:08.191Z,1025.31
2017-01-18T14:53:21.620Z,1025.25
2017-01-18T14:54:35.079Z,1025.33
2017-01-18T14:55:49.903Z,1025.22
2017-01-18T14:57:03.431Z,1025.39
2017-01-18T14:58:16.996Z,1025.26
2017-01-18T14:59:31.197Z,1025.2
2017-01-18T15:00:45.153Z,1025.31
2017-01-18T15:01:58.604Z,1025.14
2017-01-18T15:03:12.095Z,1025.2
2017-01-18T15:04:25.496Z,1025.28
2017-01-18T15:05:39.329Z,1025.15
2017-01-18T15:06:52.766Z,1025.13
2017-01-18T15:08:06.271Z,1025.18
2017-01-18T15:09:20.101Z,1025.13